WJA652 CYHZ-CYYZ
Flight info
| Callsign | WJA652 |
|---|---|
| Flight time | N/A |
| Altitude | 35000 |
| Route | CYHZ4 SENVI VIGMA ALLEX SQUAM ARNII FABEN WOZEE LINNG3 |
| Aircraft | B738/M-V/N |
Departure
| Time | 2026-04-28 01:03 |
|---|---|
| Airport | Halifax / Stanfield International Airport (CYHZ) |
Arrival
| Time | N/A |
|---|---|
| Airport | Toronto Pearson International Airport (CYYZ) |
| Time | Latitude | Longitude | Altitude | Speed | Heading |
|---|---|---|---|---|---|
| 2026-04-28 00:30 | 44.88917 | -63.51572 | 448 ft | 0 kts | 245° |
| 2026-04-28 00:40 | 44.88923 | -63.51553 | 448 ft | 2 kts | 254° |
| 2026-04-28 00:40 | 44.88926 | -63.51531 | 448 ft | 2 kts | 274° |
| 2026-04-28 00:40 | 44.88923 | -63.51508 | 448 ft | 2 kts | 295° |
| 2026-04-28 00:41 | 44.88914 | -63.51489 | 448 ft | 2 kts | 315° |
| 2026-04-28 00:41 | 44.88912 | -63.51485 | 448 ft | 0 kts | 319° |
| 2026-04-28 00:54 | 44.88953 | -63.51508 | 448 ft | 10 kts | 346° |
| 2026-04-28 00:54 | 44.89019 | -63.51544 | 447 ft | 10 kts | 326° |
| 2026-04-28 00:54 | 44.89063 | -63.51621 | 446 ft | 10 kts | 298° |
| 2026-04-28 00:54 | 44.89094 | -63.51707 | 439 ft | 10 kts | 301° |
| 2026-04-28 00:55 | 44.89132 | -63.51783 | 440 ft | 8 kts | 305° |
| 2026-04-28 00:55 | 44.89150 | -63.51819 | 439 ft | 1 kts | 305° |
| 2026-04-28 00:55 | 44.89153 | -63.51824 | 439 ft | 0 kts | 305° |
| 2026-04-28 00:58 | 44.89153 | -63.51825 | 439 ft | 0 kts | 304° |
| 2026-04-28 01:00 | 44.89167 | -63.51846 | 438 ft | 9 kts | 323° |
| 2026-04-28 01:00 | 44.89244 | -63.51836 | 440 ft | 15 kts | 31° |
| 2026-04-28 01:00 | 44.89279 | -63.51780 | 437 ft | 4 kts | 63° |
| 2026-04-28 01:00 | 44.89281 | -63.51774 | 444 ft | 0 kts | 64° |
| 2026-04-28 01:01 | 44.89300 | -63.51706 | 434 ft | 14 kts | 74° |
| 2026-04-28 01:01 | 44.89289 | -63.51582 | 446 ft | 8 kts | 122° |
| 2026-04-28 01:01 | 44.89283 | -63.51571 | 446 ft | 0 kts | 124° |
| 2026-04-28 01:02 | 44.89222 | -63.51446 | 447 ft | 53 kts | 124° |
| 2026-04-28 01:03 | 44.88836 | -63.50662 | 452 ft | 138 kts | 124° |
| 2026-04-28 01:03 | 44.88180 | -63.49371 | 945 ft | 168 kts | 126° |
| 2026-04-28 01:03 | 44.87514 | -63.48031 | 2136 ft | 177 kts | 124° |
| 2026-04-28 01:03 | 44.86801 | -63.46524 | 2958 ft | 190 kts | 123° |
| 2026-04-28 01:04 | 44.86046 | -63.44943 | 3681 ft | 198 kts | 123° |
| 2026-04-28 01:04 | 44.85257 | -63.43322 | 4355 ft | 203 kts | 123° |
| 2026-04-28 01:04 | 44.84572 | -63.41922 | 4969 ft | 205 kts | 123° |
| 2026-04-28 01:04 | 44.83634 | -63.40424 | 5586 ft | 213 kts | 148° |
| 2026-04-28 01:05 | 44.82178 | -63.40029 | 6141 ft | 226 kts | 188° |
| 2026-04-28 01:05 | 44.80763 | -63.41113 | 6520 ft | 243 kts | 231° |
| 2026-04-28 01:05 | 44.80000 | -63.43221 | 7217 ft | 243 kts | 253° |
| 2026-04-28 01:05 | 44.79652 | -63.45559 | 7905 ft | 246 kts | 264° |
| 2026-04-28 01:06 | 44.79459 | -63.47963 | 8603 ft | 248 kts | 265° |
| 2026-04-28 01:06 | 44.79287 | -63.50392 | 9312 ft | 251 kts | 265° |
| 2026-04-28 01:06 | 44.79107 | -63.52850 | 10013 ft | 254 kts | 265° |
| 2026-04-28 01:06 | 44.78914 | -63.55366 | 10456 ft | 268 kts | 265° |
| 2026-04-28 01:07 | 44.78699 | -63.58035 | 10862 ft | 279 kts | 265° |
| 2026-04-28 01:07 | 44.78471 | -63.60763 | 11468 ft | 282 kts | 264° |
| 2026-04-28 01:07 | 44.78235 | -63.63509 | 12124 ft | 283 kts | 264° |
| 2026-04-28 01:07 | 44.78075 | -63.65338 | 12553 ft | 285 kts | 264° |
| 2026-04-28 01:08 | 44.77746 | -63.69050 | 13416 ft | 287 kts | 264° |
| 2026-04-28 01:08 | 44.77495 | -63.71848 | 14064 ft | 289 kts | 263° |
| 2026-04-28 01:08 | 44.77241 | -63.74664 | 14644 ft | 292 kts | 263° |
| 2026-04-28 01:08 | 44.76984 | -63.77508 | 15348 ft | 296 kts | 263° |
| 2026-04-28 01:09 | 44.76715 | -63.80458 | 15754 ft | 311 kts | 263° |
| 2026-04-28 01:09 | 44.76434 | -63.83530 | 16334 ft | 320 kts | 262° |
| 2026-04-28 01:09 | 44.76147 | -63.86651 | 17078 ft | 323 kts | 262° |
| 2026-04-28 01:09 | 44.75858 | -63.89788 | 17855 ft | 325 kts | 262° |
| 2026-04-28 01:10 | 44.75565 | -63.92955 | 18603 ft | 328 kts | 262° |
| 2026-04-28 01:10 | 44.75269 | -63.96155 | 19252 ft | 331 kts | 262° |
| 2026-04-28 01:10 | 44.74969 | -63.99383 | 19898 ft | 334 kts | 262° |
| 2026-04-28 01:10 | 44.74666 | -64.02631 | 20192 ft | 349 kts | 262° |
| 2026-04-28 01:11 | 44.74338 | -64.06139 | 20434 ft | 364 kts | 262° |
| 2026-04-28 01:11 | 44.74009 | -64.09653 | 20969 ft | 368 kts | 262° |
| 2026-04-28 01:11 | 44.73672 | -64.13226 | 21642 ft | 369 kts | 262° |
| 2026-04-28 01:11 | 44.73329 | -64.16821 | 22285 ft | 371 kts | 261° |
| 2026-04-28 01:12 | 44.72885 | -64.20404 | 22879 ft | 374 kts | 258° |
| 2026-04-28 01:12 | 44.72357 | -64.24013 | 23454 ft | 378 kts | 257° |
| 2026-04-28 01:12 | 44.71799 | -64.27638 | 24020 ft | 381 kts | 257° |
| 2026-04-28 01:12 | 44.71235 | -64.31279 | 24509 ft | 383 kts | 257° |
| 2026-04-28 01:13 | 44.70671 | -64.34944 | 25022 ft | 384 kts | 257° |
| 2026-04-28 01:13 | 44.69535 | -64.42418 | 25508 ft | 403 kts | 257° |
| 2026-04-28 01:13 | 44.69139 | -64.45046 | 25581 ft | 410 kts | 257° |
| 2026-04-28 01:14 | 44.68543 | -64.49008 | 25847 ft | 417 kts | 257° |
| 2026-04-28 01:14 | 44.67950 | -64.52954 | 26293 ft | 418 kts | 257° |
| 2026-04-28 01:14 | 44.67352 | -64.56941 | 26768 ft | 418 kts | 257° |
| 2026-04-28 01:14 | 44.66740 | -64.61006 | 27165 ft | 421 kts | 257° |
| 2026-04-28 01:15 | 44.66139 | -64.64985 | 27556 ft | 423 kts | 257° |
| 2026-04-28 01:15 | 44.65527 | -64.69027 | 28029 ft | 423 kts | 257° |
| 2026-04-28 01:15 | 44.64908 | -64.73112 | 28598 ft | 421 kts | 257° |
| 2026-04-28 01:15 | 44.64298 | -64.77118 | 29168 ft | 419 kts | 257° |
| 2026-04-28 01:16 | 44.63695 | -64.81069 | 29672 ft | 419 kts | 257° |
| 2026-04-28 01:16 | 44.63084 | -64.85068 | 30077 ft | 420 kts | 257° |
| 2026-04-28 01:16 | 44.62465 | -64.89103 | 30313 ft | 426 kts | 257° |
| 2026-04-28 01:16 | 44.61836 | -64.93192 | 30545 ft | 430 kts | 257° |
| 2026-04-28 01:17 | 44.61203 | -64.97299 | 30810 ft | 432 kts | 257° |
| 2026-04-28 01:17 | 44.60566 | -65.01422 | 31182 ft | 432 kts | 257° |
| 2026-04-28 01:17 | 44.59928 | -65.05538 | 31596 ft | 430 kts | 257° |
| 2026-04-28 01:17 | 44.59293 | -65.09631 | 31970 ft | 430 kts | 257° |
| 2026-04-28 01:18 | 44.58655 | -65.13725 | 32310 ft | 430 kts | 257° |
| 2026-04-28 01:18 | 44.58015 | -65.17830 | 32666 ft | 430 kts | 257° |
| 2026-04-28 01:18 | 44.57375 | -65.21916 | 33051 ft | 429 kts | 257° |
| 2026-04-28 01:18 | 44.56735 | -65.25995 | 33433 ft | 428 kts | 258° |
| 2026-04-28 01:19 | 44.56095 | -65.30064 | 33786 ft | 428 kts | 258° |
| 2026-04-28 01:19 | 44.55453 | -65.34141 | 34146 ft | 427 kts | 258° |
| 2026-04-28 01:19 | 44.54811 | -65.38203 | 34448 ft | 427 kts | 258° |
| 2026-04-28 01:19 | 44.54164 | -65.42285 | 34539 ft | 432 kts | 258° |
| 2026-04-28 01:20 | 44.52843 | -65.50596 | 34780 ft | 439 kts | 258° |
| 2026-04-28 01:20 | 44.52176 | -65.54771 | 35017 ft | 439 kts | 258° |
| 2026-04-28 01:20 | 44.51510 | -65.58937 | 35311 ft | 438 kts | 258° |
| 2026-04-28 01:21 | 44.50159 | -65.67349 | 35366 ft | 445 kts | 258° |
| 2026-04-28 01:21 | 44.49425 | -65.71897 | 35351 ft | 444 kts | 258° |
| 2026-04-28 01:23 | 44.48093 | -65.80121 | 35343 ft | 437 kts | 258° |
| 2026-04-28 01:24 | 44.46743 | -65.88423 | 35358 ft | 437 kts | 258° |
| 2026-04-28 01:24 | 44.45397 | -65.96660 | 35350 ft | 437 kts | 258° |
| 2026-04-28 01:25 | 44.44035 | -66.04949 | 35343 ft | 437 kts | 258° |
| 2026-04-28 01:25 | 44.42667 | -66.13241 | 35342 ft | 438 kts | 258° |
| 2026-04-28 01:26 | 44.41290 | -66.21546 | 35341 ft | 439 kts | 258° |
| 2026-04-28 01:26 | 44.39903 | -66.29865 | 35337 ft | 440 kts | 258° |
| 2026-04-28 01:27 | 44.38507 | -66.38205 | 35339 ft | 440 kts | 258° |
| 2026-04-28 01:27 | 44.37108 | -66.46523 | 35320 ft | 435 kts | 258° |
| 2026-04-28 01:28 | 44.35731 | -66.54674 | 35335 ft | 428 kts | 258° |
| 2026-04-28 01:28 | 44.34445 | -66.62782 | 35318 ft | 426 kts | 266° |
| 2026-04-28 01:29 | 44.34564 | -66.66887 | 35353 ft | 423 kts | 282° |
| 2026-04-28 01:29 | 44.35325 | -66.70841 | 35358 ft | 422 kts | 288° |
| 2026-04-28 01:29 | 44.37094 | -66.78682 | 35352 ft | 423 kts | 288° |
| 2026-04-28 01:30 | 44.38824 | -66.86551 | 35353 ft | 424 kts | 287° |
| 2026-04-28 01:30 | 44.40504 | -66.94474 | 35362 ft | 425 kts | 287° |
| 2026-04-28 01:31 | 44.41443 | -67.02602 | 35364 ft | 428 kts | 264° |
| 2026-04-28 01:31 | 44.40478 | -67.10935 | 35370 ft | 441 kts | 261° |
| 2026-04-28 01:32 | 44.39343 | -67.19460 | 35360 ft | 449 kts | 261° |
| 2026-04-28 01:32 | 44.38226 | -67.28064 | 35351 ft | 448 kts | 261° |
| 2026-04-28 01:33 | 44.37161 | -67.36489 | 35354 ft | 440 kts | 261° |
| 2026-04-28 01:33 | 44.36103 | -67.44934 | 35367 ft | 441 kts | 261° |